createdAt,value
2022-08-17T00:01:32.747Z,17.31
2022-08-17T00:04:20.957Z,17.39
2022-08-17T00:06:49.553Z,17.42
2022-08-17T00:09:19.014Z,17.48
2022-08-17T00:12:34.606Z,17.41
2022-08-17T00:14:35.190Z,17.39
2022-08-17T00:17:03.885Z,17.40
2022-08-17T00:19:32.720Z,17.38
2022-08-17T00:22:31.324Z,17.38
2022-08-17T00:24:50.240Z,17.37
2022-08-17T00:27:17.630Z,17.35
2022-08-17T00:29:46.083Z,17.27
2022-08-17T00:33:22.701Z,17.17
2022-08-17T00:35:00.701Z,17.13
2022-08-17T00:37:27.813Z,17.12
2022-08-17T00:39:54.825Z,17.17
2022-08-17T00:42:21.747Z,17.14
2022-08-17T00:44:48.577Z,17.07
2022-08-17T00:47:15.519Z,17.17
2022-08-17T00:49:42.459Z,17.13
2022-08-17T00:52:15.638Z,17.20
2022-08-17T00:54:44.778Z,17.15
2022-08-17T00:57:32.228Z,17.06
2022-08-17T01:00:21.422Z,17.11
2022-08-17T01:02:48.482Z,17.07
2022-08-17T01:05:18.855Z,17.19
2022-08-17T01:07:46.481Z,17.13
2022-08-17T01:10:57.229Z,17.21
2022-08-17T01:13:02.549Z,17.23
2022-08-17T01:15:30.597Z,17.20
2022-08-17T01:17:57.582Z,17.14
2022-08-17T01:20:25.158Z,17.00
2022-08-17T01:22:52.659Z,17.10
2022-08-17T01:25:19.641Z,17.13
2022-08-17T01:27:46.737Z,17.16
2022-08-17T01:30:56.963Z,17.11
2022-08-17T01:33:00.731Z,17.21
2022-08-17T01:35:27.596Z,17.12
2022-08-17T01:37:54.517Z,17.10
2022-08-17T01:40:39.228Z,17.05
2022-08-17T01:43:10.659Z,17.16
2022-08-17T01:45:47.528Z,17.14
2022-08-17T01:48:14.757Z,17.11
2022-08-17T01:50:42.938Z,17.09
2022-08-17T01:53:12.239Z,17.14
2022-08-17T01:55:43.138Z,17.16
2022-08-17T01:58:10.121Z,17.22
2022-08-17T02:00:59.370Z,17.16
2022-08-17T02:03:25.197Z,17.09
2022-08-17T02:05:53.452Z,17.32
2022-08-17T02:08:20.804Z,17.25
2022-08-17T02:11:11.259Z,17.29
2022-08-17T02:13:38.437Z,17.31
2022-08-17T02:16:05.439Z,17.33
2022-08-17T02:18:32.246Z,17.39
2022-08-17T02:20:59.096Z,17.32
2022-08-17T02:23:27.316Z,17.30
2022-08-17T02:25:54.259Z,17.28
2022-08-17T02:28:21.132Z,17.28
2022-08-17T02:31:02.254Z,17.30
2022-08-17T02:33:41.709Z,17.26
2022-08-17T02:36:10.877Z,17.16
2022-08-17T02:38:38.694Z,17.23
2022-08-17T02:41:05.646Z,17.14
2022-08-17T02:43:32.599Z,17.16
2022-08-17T02:45:59.515Z,17.11
2022-08-17T02:48:30.771Z,17.02
2022-08-17T02:50:59.299Z,16.93
2022-08-17T02:53:26.241Z,16.97
2022-08-17T02:55:53.463Z,16.93
2022-08-17T02:58:35.292Z,16.86
2022-08-17T03:01:06.528Z,16.79
2022-08-17T03:03:33.483Z,16.77
2022-08-17T03:06:00.540Z,16.66
2022-08-17T03:08:27.397Z,16.83
2022-08-17T03:10:54.257Z,16.69
2022-08-17T03:13:21.197Z,16.75
2022-08-17T03:15:48.539Z,16.69
2022-08-17T03:18:21.946Z,16.80
2022-08-17T03:20:54.604Z,16.87
2022-08-17T03:23:24.079Z,16.84
2022-08-17T03:25:53.128Z,17.03
2022-08-17T03:28:20.765Z,17.03
2022-08-17T03:30:47.736Z,17.04
2022-08-17T03:33:14.789Z,16.97
2022-08-17T03:35:41.916Z,16.97
2022-08-17T03:38:10.253Z,16.98
2022-08-17T03:40:58.651Z,17.05
2022-08-17T03:43:24.003Z,17.05
2022-08-17T03:46:10.905Z,17.06
2022-08-17T03:49:14.480Z,17.14
2022-08-17T03:51:59.888Z,17.07
2022-08-17T03:54:44.985Z,17.10
2022-08-17T03:57:12.597Z,17.21
2022-08-17T03:59:39.601Z,17.24
2022-08-17T04:02:13.758Z,17.26
2022-08-17T04:04:40.759Z,17.25
2022-08-17T04:07:07.738Z,17.28
2022-08-17T04:09:34.780Z,17.34
2022-08-17T04:12:04.903Z,17.41
2022-08-17T04:14:52.281Z,17.42
2022-08-17T04:17:26.559Z,17.45
2022-08-17T04:19:53.755Z,17.40
2022-08-17T04:22:30.482Z,17.52
2022-08-17T04:25:05.942Z,17.57
2022-08-17T04:27:32.869Z,17.67
2022-08-17T04:29:59.881Z,17.68
2022-08-17T04:33:00.786Z,17.78
2022-08-17T04:35:18.599Z,17.80
2022-08-17T04:37:45.575Z,17.86
2022-08-17T04:40:30.639Z,18.01
2022-08-17T04:43:05.742Z,18.29
2022-08-17T04:45:32.836Z,18.70
2022-08-17T04:48:00.804Z,18.98
2022-08-17T04:50:27.951Z,19.37
2022-08-17T04:52:55.285Z,19.62
2022-08-17T04:55:22.460Z,20.00
2022-08-17T04:57:49.337Z,20.30
2022-08-17T05:00:16.354Z,20.68
2022-08-17T05:02:50.739Z,20.86
2022-08-17T05:05:19.858Z,21.13
2022-08-17T05:07:48.140Z,21.17
2022-08-17T05:10:15.014Z,21.08
2022-08-17T05:12:41.968Z,21.22
2022-08-17T05:15:16.106Z,21.23
2022-08-17T05:17:43.798Z,21.31
2022-08-17T05:20:10.997Z,21.37
2022-08-17T05:22:47.600Z,21.42
2022-08-17T05:25:17.156Z,21.46
2022-08-17T05:27:44.569Z,21.47
2022-08-17T05:30:13.398Z,21.29
2022-08-17T05:32:40.560Z,21.42
2022-08-17T05:35:08.017Z,21.30
2022-08-17T05:37:34.858Z,21.36
2022-08-17T05:40:01.892Z,21.42
2022-08-17T05:42:28.909Z,21.49
2022-08-17T05:44:58.022Z,21.54
2022-08-17T05:47:25.422Z,21.65
2022-08-17T05:49:53.906Z,21.68
2022-08-17T05:52:29.639Z,21.78
2022-08-17T05:55:30.952Z,21.81
2022-08-17T05:58:16.583Z,21.89
2022-08-17T06:01:04.428Z,21.93
2022-08-17T06:03:53.539Z,22.02
2022-08-17T06:06:38.281Z,22.08
2022-08-17T06:09:26.539Z,22.23
2022-08-17T06:12:33.697Z,22.62
2022-08-17T06:15:13.781Z,23.12
2022-08-17T06:17:41.061Z,23.43
2022-08-17T06:20:13.767Z,23.69
2022-08-17T06:23:04.788Z,23.90
2022-08-17T06:25:51.839Z,23.95
2022-08-17T06:28:30.914Z,23.84
2022-08-17T06:31:01.523Z,24.05
2022-08-17T06:33:36.950Z,24.13
2022-08-17T06:36:25.551Z,24.42
2022-08-17T06:39:23.415Z,24.60
2022-08-17T06:42:04.140Z,24.49
2022-08-17T06:44:43.692Z,24.45
2022-08-17T06:47:36.522Z,25.12
2022-08-17T06:50:05.693Z,25.10
2022-08-17T06:52:46.631Z,24.64
2022-08-17T06:55:44.379Z,25.59
2022-08-17T06:58:16.413Z,26.26
2022-08-17T07:00:46.254Z,26.85
2022-08-17T07:03:38.115Z,27.30
2022-08-17T07:06:29.842Z,27.72
2022-08-17T07:09:23.330Z,27.96
2022-08-17T07:11:58.809Z,28.02
2022-08-17T07:14:57.276Z,27.14
2022-08-17T07:17:46.522Z,26.93
2022-08-17T07:20:20.717Z,27.60
2022-08-17T07:23:22.099Z,28.20
2022-08-17T07:25:49.637Z,28.05
2022-08-17T07:28:23.018Z,27.50
2022-08-17T07:30:54.070Z,27.58
2022-08-17T07:33:27.545Z,27.63
2022-08-17T07:35:54.460Z,28.19
2022-08-17T07:38:28.322Z,27.82
2022-08-17T07:40:57.866Z,27.44
2022-08-17T07:43:50.016Z,27.31
2022-08-17T07:46:53.669Z,27.98
2022-08-17T07:49:31.717Z,28.70
2022-08-17T07:52:48.078Z,29.38
2022-08-17T07:54:48.419Z,30.06
2022-08-17T07:57:15.158Z,30.12
2022-08-17T08:00:02.185Z,30.03
2022-08-17T08:02:40.459Z,29.82
2022-08-17T08:05:46.654Z,30.14
2022-08-17T08:08:30.560Z,30.28
2022-08-17T08:11:03.642Z,30.64
2022-08-17T08:13:30.881Z,30.86
2022-08-17T08:16:19.974Z,31.40
2022-08-17T08:18:54.089Z,31.75
2022-08-17T08:21:46.561Z,31.92
2022-08-17T08:24:30.976Z,32.41
2022-08-17T08:27:19.585Z,32.73
2022-08-17T08:29:49.479Z,32.61
2022-08-17T08:32:22.480Z,32.38
2022-08-17T08:35:02.022Z,32.30
2022-08-17T08:37:58.191Z,32.43
2022-08-17T08:40:35.344Z,32.38
2022-08-17T08:43:22.079Z,32.53
2022-08-17T08:46:04.992Z,32.32
2022-08-17T08:49:11.957Z,32.37
2022-08-17T08:52:02.092Z,33.00
2022-08-17T08:54:34.935Z,32.90
2022-08-17T08:57:24.488Z,32.91
2022-08-17T09:00:14.801Z,33.15
2022-08-17T09:03:03.134Z,33.09
2022-08-17T09:05:43.117Z,33.34
2022-08-17T09:08:19.279Z,33.10
2022-08-17T09:10:57.876Z,32.85
2022-08-17T09:13:42.944Z,32.74
2022-08-17T09:16:23.282Z,33.08
2022-08-17T09:19:03.437Z,32.87
2022-08-17T09:21:52.710Z,33.13
2022-08-17T09:24:27.853Z,33.58
2022-08-17T09:27:13.590Z,33.44
2022-08-17T09:29:49.157Z,33.38
2022-08-17T09:32:42.137Z,33.47
2022-08-17T09:35:17.536Z,33.39
2022-08-17T09:38:32.675Z,32.67
2022-08-17T09:41:10.941Z,32.82
2022-08-17T09:43:49.822Z,32.99
2022-08-17T09:46:38.848Z,33.19
2022-08-17T09:49:15.085Z,33.46
2022-08-17T09:51:49.397Z,33.26
2022-08-17T09:54:39.578Z,33.37
2022-08-17T09:57:49.513Z,33.14
2022-08-17T10:00:27.060Z,32.99
2022-08-17T10:03:32.497Z,32.97
2022-08-17T10:06:07.843Z,32.67
2022-08-17T10:08:57.534Z,32.57
2022-08-17T10:12:04.098Z,32.58
2022-08-17T10:14:43.647Z,32.73
2022-08-17T10:17:26.500Z,32.92
2022-08-17T10:19:55.777Z,32.79
2022-08-17T10:23:22.706Z,32.98
2022-08-17T10:26:04.806Z,33.04
2022-08-17T10:28:52.738Z,33.47
2022-08-17T10:31:35.705Z,33.34
2022-08-17T10:34:41.079Z,33.46
2022-08-17T10:37:40.624Z,34.11
2022-08-17T10:40:32.602Z,33.48
2022-08-17T10:43:18.297Z,32.86
2022-08-17T10:46:27.738Z,33.00
2022-08-17T10:49:18.466Z,32.97
2022-08-17T10:51:47.852Z,33.41
2022-08-17T10:54:47.365Z,34.23
2022-08-17T10:57:39.679Z,33.87
2022-08-17T11:00:13.011Z,33.25
2022-08-17T11:02:50.453Z,32.94
2022-08-17T11:05:43.762Z,33.42
2022-08-17T11:08:49.943Z,33.64
2022-08-17T11:11:43.438Z,33.43
2022-08-17T11:14:29.138Z,33.59
2022-08-17T11:17:20.695Z,33.76
2022-08-17T11:20:05.887Z,34.34
2022-08-17T11:22:55.717Z,33.79
2022-08-17T11:25:33.259Z,33.53
2022-08-17T11:28:25.699Z,33.59
2022-08-17T11:31:10.079Z,33.99
2022-08-17T11:33:42.804Z,34.80
2022-08-17T11:36:31.697Z,34.62
2022-08-17T11:39:36.504Z,34.34
2022-08-17T11:42:37.589Z,33.70
2022-08-17T11:45:42.336Z,33.28
2022-08-17T11:49:05.345Z,33.22
2022-08-17T11:51:56.053Z,33.33
2022-08-17T11:54:47.267Z,33.37
2022-08-17T11:57:26.419Z,34.01
2022-08-17T11:59:58.421Z,34.48
2022-08-17T12:02:31.778Z,34.26
2022-08-17T12:05:04.383Z,34.14
2022-08-17T12:07:41.742Z,33.99
2022-08-17T12:10:08.840Z,34.20
2022-08-17T12:12:36.046Z,34.66
2022-08-17T12:15:10.689Z,34.77
2022-08-17T12:17:51.901Z,34.11
2022-08-17T12:20:24.818Z,33.45
2022-08-17T12:23:33.214Z,33.19
2022-08-17T12:26:12.176Z,32.89
2022-08-17T12:28:39.375Z,32.98
2022-08-17T12:31:15.275Z,33.35
2022-08-17T12:33:46.093Z,33.58
2022-08-17T12:36:17.134Z,33.75
2022-08-17T12:38:50.696Z,33.88
2022-08-17T12:41:42.405Z,34.28
2022-08-17T12:44:16.202Z,33.84
2022-08-17T12:46:59.685Z,33.70
2022-08-17T12:49:35.596Z,32.94
2022-08-17T12:52:06.819Z,32.68
2022-08-17T12:54:38.576Z,33.00
2022-08-17T12:57:17.074Z,32.79
2022-08-17T12:59:47.400Z,33.53
2022-08-17T13:03:06.017Z,33.44
2022-08-17T13:05:40.694Z,33.06
2022-08-17T13:08:16.700Z,32.97
2022-08-17T13:10:43.978Z,32.87
2022-08-17T13:13:27.981Z,32.96
2022-08-17T13:15:59.696Z,33.35
2022-08-17T13:18:48.957Z,33.21
2022-08-17T13:21:26.810Z,33.24
2022-08-17T13:24:12.028Z,33.37
2022-08-17T13:26:45.765Z,32.94
2022-08-17T13:29:30.627Z,32.61
2022-08-17T13:32:16.015Z,32.63
2022-08-17T13:34:51.391Z,32.68
2022-08-17T13:37:36.116Z,32.76
2022-08-17T13:40:12.065Z,32.22
2022-08-17T13:42:53.164Z,32.24
2022-08-17T13:45:39.665Z,33.08
2022-08-17T13:48:11.112Z,33.36
2022-08-17T13:50:59.582Z,32.96
2022-08-17T13:53:36.065Z,32.84
2022-08-17T13:56:33.448Z,32.43
2022-08-17T13:59:08.797Z,31.95
2022-08-17T14:01:41.151Z,31.94
2022-08-17T14:04:16.063Z,31.98
2022-08-17T14:06:54.090Z,31.87
2022-08-17T14:09:24.368Z,32.40
2022-08-17T14:11:51.383Z,32.06
2022-08-17T14:14:18.404Z,31.47
2022-08-17T14:16:45.176Z,31.24
2022-08-17T14:19:13.158Z,31.18
2022-08-17T14:21:42.902Z,31.18
2022-08-17T14:24:31.346Z,31.38
2022-08-17T14:26:58.997Z,31.41
2022-08-17T14:29:27.892Z,31.61
2022-08-17T14:31:55.012Z,31.61
2022-08-17T14:34:22.886Z,31.79
2022-08-17T14:36:49.657Z,31.79
2022-08-17T14:39:16.711Z,31.49
2022-08-17T14:41:43.709Z,31.32
2022-08-17T14:44:12.624Z,31.26
2022-08-17T14:46:43.005Z,31.00
2022-08-17T14:49:11.165Z,31.03
2022-08-17T14:51:43.637Z,30.63
2022-08-17T14:54:33.189Z,30.89
2022-08-17T14:57:22.903Z,30.28
2022-08-17T14:59:54.996Z,29.47
2022-08-17T15:02:30.028Z,29.35
2022-08-17T15:05:04.284Z,29.34
2022-08-17T15:07:31.673Z,29.41
2022-08-17T15:10:02.312Z,29.27
2022-08-17T15:12:33.386Z,28.89
2022-08-17T15:15:05.046Z,28.38
2022-08-17T15:17:45.149Z,28.07
2022-08-17T15:20:17.745Z,27.46
2022-08-17T15:22:45.005Z,27.17
2022-08-17T15:25:12.167Z,26.74
2022-08-17T15:27:40.270Z,26.54
2022-08-17T15:30:07.517Z,26.36
2022-08-17T15:32:36.038Z,26.11
2022-08-17T15:35:03.034Z,26.04
2022-08-17T15:37:31.847Z,25.90
2022-08-17T15:40:00.793Z,25.90
2022-08-17T15:42:27.739Z,25.86
2022-08-17T15:44:57.236Z,25.80
2022-08-17T15:47:24.423Z,25.70
2022-08-17T15:49:51.225Z,25.54
2022-08-17T15:52:24.213Z,25.52
2022-08-17T15:54:58.364Z,25.46
2022-08-17T15:57:25.782Z,25.40
2022-08-17T15:59:58.811Z,25.21
2022-08-17T16:03:45.219Z,25.15
2022-08-17T16:05:17.576Z,25.06
2022-08-17T16:07:47.082Z,25.02
2022-08-17T16:10:18.676Z,24.79
2022-08-17T16:12:46.483Z,24.79
2022-08-17T16:15:13.843Z,24.67
2022-08-17T16:17:41.567Z,24.57
2022-08-17T16:20:10.035Z,24.54
2022-08-17T16:22:47.661Z,24.50
2022-08-17T16:25:17.564Z,24.47
2022-08-17T16:27:44.703Z,24.37
2022-08-17T16:30:16.904Z,24.36
2022-08-17T16:32:45.540Z,24.21
2022-08-17T16:35:12.469Z,24.23
2022-08-17T16:37:40.403Z,24.19
2022-08-17T16:40:12.726Z,24.06
2022-08-17T16:42:39.781Z,23.99
2022-08-17T16:45:16.991Z,23.94
2022-08-17T16:47:44.011Z,23.90
2022-08-17T16:50:12.632Z,23.76
2022-08-17T16:52:39.960Z,23.71
2022-08-17T16:55:08.049Z,23.67
2022-08-17T16:57:35.886Z,23.60
2022-08-17T17:00:03.943Z,23.42
2022-08-17T17:02:38.547Z,23.39
2022-08-17T17:05:29.744Z,23.31
2022-08-17T17:08:07.832Z,23.25
2022-08-17T17:10:43.455Z,23.19
2022-08-17T17:13:29.417Z,23.05
2022-08-17T17:16:01.959Z,23.02
2022-08-17T17:18:51.775Z,23.04
2022-08-17T17:21:20.023Z,23.01
2022-08-17T17:23:55.103Z,22.99
2022-08-17T17:26:32.998Z,22.94
2022-08-17T17:29:20.758Z,22.91
2022-08-17T17:32:09.880Z,22.90
2022-08-17T17:34:36.585Z,22.82
2022-08-17T17:37:08.601Z,22.74
2022-08-17T17:39:43.860Z,22.78
2022-08-17T17:42:14.198Z,22.75
2022-08-17T17:45:06.828Z,22.72
2022-08-17T17:47:33.969Z,22.68
2022-08-17T17:50:01.464Z,22.60
2022-08-17T17:52:36.339Z,22.54
2022-08-17T17:55:05.324Z,22.50
2022-08-17T17:58:06.656Z,22.43
2022-08-17T18:00:54.165Z,22.30
2022-08-17T18:03:20.801Z,22.30
2022-08-17T18:06:04.160Z,22.22
2022-08-17T18:08:49.468Z,22.13
2022-08-17T18:11:37.144Z,22.06
2022-08-17T18:14:14.854Z,22.01
2022-08-17T18:16:42.835Z,21.88
2022-08-17T18:19:16.340Z,21.90
2022-08-17T18:21:45.948Z,21.74
2022-08-17T18:24:13.187Z,21.79
2022-08-17T18:27:23.439Z,21.77
2022-08-17T18:30:00.247Z,21.70
2022-08-17T18:32:43.682Z,21.60
2022-08-17T18:35:10.426Z,21.59
2022-08-17T18:37:57.013Z,21.59
2022-08-17T18:40:26.888Z,21.54
2022-08-17T18:43:07.392Z,21.58
2022-08-17T18:45:49.269Z,21.54
2022-08-17T18:48:22.058Z,21.56
2022-08-17T18:50:51.484Z,21.53
2022-08-17T18:53:40.719Z,21.40
2022-08-17T18:56:48.527Z,21.41
2022-08-17T18:59:47.007Z,21.40
2022-08-17T19:02:27.267Z,21.41
2022-08-17T19:05:09.073Z,21.45
2022-08-17T19:07:38.004Z,21.48
2022-08-17T19:10:13.880Z,21.47
2022-08-17T19:12:43.290Z,21.46
2022-08-17T19:15:11.162Z,21.40
2022-08-17T19:17:42.918Z,21.29
2022-08-17T19:20:19.643Z,21.36
2022-08-17T19:23:11.920Z,21.34
2022-08-17T19:25:43.464Z,21.23
2022-08-17T19:28:23.177Z,21.32
2022-08-17T19:30:54.424Z,21.15
2022-08-17T19:33:21.309Z,21.20
2022-08-17T19:36:00.539Z,21.23
2022-08-17T19:38:41.422Z,21.17
2022-08-17T19:41:25.227Z,21.15
2022-08-17T19:43:54.879Z,21.05
2022-08-17T19:46:35.734Z,20.98
2022-08-17T19:49:33.461Z,20.90
2022-08-17T19:52:34.631Z,20.80
2022-08-17T19:55:20.697Z,20.76
2022-08-17T19:58:12.275Z,20.65
2022-08-17T20:00:49.358Z,20.65
2022-08-17T20:03:40.891Z,20.59
2022-08-17T20:06:15.286Z,20.50
2022-08-17T20:09:33.810Z,20.46
2022-08-17T20:12:09.521Z,20.34
2022-08-17T20:14:55.350Z,20.37
2022-08-17T20:17:24.911Z,20.25
2022-08-17T20:20:01.431Z,20.31
2022-08-17T20:22:36.841Z,20.18
2022-08-17T20:25:46.183Z,20.27
2022-08-17T20:28:27.927Z,20.29
2022-08-17T20:30:54.867Z,20.31
2022-08-17T20:33:36.180Z,20.37
2022-08-17T20:36:17.210Z,20.45
2022-08-17T20:38:50.371Z,20.49
2022-08-17T20:41:22.479Z,20.37
2022-08-17T20:44:09.710Z,20.34
2022-08-17T20:46:36.381Z,20.34
2022-08-17T20:49:09.025Z,20.30
2022-08-17T20:52:01.726Z,20.31
2022-08-17T20:54:47.780Z,20.30
2022-08-17T20:57:33.039Z,20.25
2022-08-17T21:00:16.460Z,20.21
2022-08-17T21:02:47.589Z,20.17
2022-08-17T21:05:37.685Z,20.18
2022-08-17T21:08:28.522Z,20.16
2022-08-17T21:10:55.582Z,20.12
2022-08-17T21:14:08.313Z,20.12
2022-08-17T21:16:39.678Z,20.14
2022-08-17T21:19:11.010Z,20.09
2022-08-17T21:22:34.535Z,20.04
2022-08-17T21:25:19.490Z,19.84
2022-08-17T21:27:54.698Z,19.94
2022-08-17T21:30:28.838Z,19.88
2022-08-17T21:33:20.083Z,19.89
2022-08-17T21:36:11.813Z,19.85
2022-08-17T21:38:57.971Z,19.86
2022-08-17T21:41:29.161Z,19.69
2022-08-17T21:44:05.381Z,19.69
2022-08-17T21:46:37.038Z,19.68
2022-08-17T21:49:13.914Z,19.61
2022-08-17T21:51:57.165Z,19.50
2022-08-17T21:54:34.593Z,19.34
2022-08-17T21:57:03.112Z,19.54
2022-08-17T21:59:37.801Z,19.53
2022-08-17T22:02:09.152Z,19.58
2022-08-17T22:04:36.835Z,19.55
2022-08-17T22:07:08.780Z,19.45
2022-08-17T22:09:41.457Z,19.36
2022-08-17T22:12:12.903Z,19.29
2022-08-17T22:14:52.448Z,19.24
2022-08-17T22:17:35.477Z,19.20
2022-08-17T22:20:15.441Z,19.15
2022-08-17T22:23:06.642Z,19.24
2022-08-17T22:25:35.977Z,19.16
2022-08-17T22:28:09.320Z,19.11
2022-08-17T22:31:01.757Z,19.13
2022-08-17T22:33:36.984Z,19.13
2022-08-17T22:36:35.135Z,19.07
2022-08-17T22:39:08.801Z,19.00
2022-08-17T22:41:55.202Z,18.94
2022-08-17T22:44:37.920Z,18.88
2022-08-17T22:47:19.082Z,18.75
2022-08-17T22:49:54.732Z,18.61
2022-08-17T22:53:00.410Z,18.74
2022-08-17T22:55:46.023Z,18.79
2022-08-17T22:58:33.204Z,18.93
2022-08-17T23:01:27.714Z,18.93
2022-08-17T23:04:33.077Z,19.01
2022-08-17T23:06:59.875Z,18.82
2022-08-17T23:09:26.781Z,18.89
2022-08-17T23:11:57.420Z,18.85
2022-08-17T23:14:25.040Z,18.78
2022-08-17T23:16:51.810Z,18.86
2022-08-17T23:19:20.275Z,18.78
2022-08-17T23:21:47.052Z,18.83
2022-08-17T23:24:27.531Z,18.87
2022-08-17T23:26:57.269Z,18.88
2022-08-17T23:29:24.940Z,18.63
2022-08-17T23:31:51.830Z,18.88
2022-08-17T23:34:18.751Z,18.72
2022-08-17T23:36:52.858Z,18.77
2022-08-17T23:39:27.828Z,18.74
2022-08-17T23:41:59.381Z,18.89
2022-08-17T23:44:26.684Z,19.00
2022-08-17T23:46:53.728Z,19.08
2022-08-17T23:49:20.486Z,19.01
2022-08-17T23:51:47.860Z,18.88
2022-08-17T23:54:26.576Z,18.93
2022-08-17T23:56:53.416Z,18.75
2022-08-17T23:59:21.356Z,18.79
